Time;durP1;ratioP1;P1;durP2;ratioP2;P2;SDS_P1;SDS_P2;PMS_P1;PMS_P2;Temp;Humidity;BMP_temperature;BMP_pressure;BME280_temperature;BME280_humidity;BME280_pressure;Samples;Min_cycle;Max_cycle;Signal;HPM_P1;HPM_P2
2021/01/23 00:00:09;;;;;;;30.67;17.88;;;1.80;95.40;;;;;;4958358;28;20086;-76
2021/01/23 00:02:34;;;;;;;29.92;17.27;;;1.80;95.60;;;;;;4975648;28;20023;-76
2021/01/23 00:05:00;;;;;;;27.15;15.82;;;1.90;95.70;;;;;;4974292;28;20039;-76
2021/01/23 00:07:26;;;;;;;29.33;16.80;;;2.00;96.00;;;;;;4958382;28;20039;-75
2021/01/23 00:09:51;;;;;;;28.60;16.45;;;2.10;96.10;;;;;;4975550;28;20138;-75
2021/01/23 00:12:17;;;;;;;27.77;16.45;;;2.10;96.10;;;;;;4975322;28;20090;-75
2021/01/23 00:14:43;;;;;;;26.70;15.75;;;2.20;96.20;;;;;;4958039;28;20034;-75
2021/01/23 00:17:08;;;;;;;24.67;15.95;;;2.20;96.20;;;;;;4957849;28;20039;-75
2021/01/23 00:19:34;;;;;;;24.17;16.25;;;2.40;96.30;;;;;;4975172;28;20031;-75
2021/01/23 00:22:00;;;;;;;24.88;15.90;;;2.40;96.30;;;;;;4957775;28;20446;-76
2021/01/23 00:24:25;;;;;;;26.67;16.55;;;2.50;96.30;;;;;;4975226;28;20058;-75
2021/01/23 00:26:51;;;;;;;26.27;15.77;;;2.50;96.30;;;;;;4975073;28;20054;-76
2021/01/23 00:29:17;;;;;;;28.65;16.33;;;2.60;96.30;;;;;;4975216;28;20031;-76
2021/01/23 00:31:43;;;;;;;28.40;16.27;;;2.60;96.30;;;;;;4957681;28;20114;-75
2021/01/23 00:34:09;;;;;;;25.40;15.40;;;2.70;96.40;;;;;;4974918;28;20497;-75
2021/01/23 00:36:35;;;;;;;28.92;16.38;;;2.70;96.50;;;;;;4958009;28;20042;-75
2021/01/23 00:39:02;;;;;;;26.77;15.65;;;2.80;96.50;;;;;;4957353;28;20034;-76
2021/01/23 00:41:27;;;;;;;28.85;16.65;;;2.80;96.50;;;;;;4974919;28;20031;-76
2021/01/23 00:43:54;;;;;;;27.58;16.45;;;2.90;96.50;;;;;;4957459;28;20031;-75
2021/01/23 00:46:21;;;;;;;29.63;16.63;;;2.90;96.40;;;;;;4974766;28;20492;-76
2021/01/23 00:48:47;;;;;;;29.90;16.80;;;2.90;96.40;;;;;;4973326;28;20037;-75
2021/01/23 00:51:13;;;;;;;29.98;16.73;;;3.00;96.50;;;;;;4973350;28;20142;-75
2021/01/23 00:53:39;;;;;;;27.83;17.05;;;3.00;96.50;;;;;;4974749;28;20106;-76
2021/01/23 00:56:05;;;;;;;26.00;15.63;;;3.10;96.50;;;;;;4975009;28;20034;-76
2021/01/23 00:58:31;;;;;;;30.52;17.73;;;3.10;96.50;;;;;;4974794;28;20037;-75
2021/01/23 01:00:56;;;;;;;27.60;16.38;;;3.10;96.50;;;;;;4974460;28;20030;-76
2021/01/23 01:03:22;;;;;;;28.02;17.40;;;3.10;96.50;;;;;;4974313;28;20031;-76
2021/01/23 01:05:48;;;;;;;27.92;16.80;;;3.10;96.50;;;;;;4974441;28;20038;-75
2021/01/23 01:08:14;;;;;;;28.55;17.75;;;3.20;96.50;;;;;;4974537;28;20089;-75
2021/01/23 01:10:45;;;;;;;35.53;18.38;;;3.20;96.50;;;;;;4974452;28;20033;-75
2021/01/23 01:13:14;;;;;;;26.63;17.08;;;3.20;96.50;;;;;;4974239;28;20362;-75
2021/01/23 01:15:40;;;;;;;33.00;17.00;;;3.20;96.40;;;;;;4974035;28;20081;-75
2021/01/23 01:18:06;;;;;;;32.65;18.58;;;3.20;96.40;;;;;;4974335;28;20187;-75
2021/01/23 01:20:32;;;;;;;31.23;18.48;;;3.20;96.40;;;;;;4956585;28;20394;-75
2021/01/23 01:22:58;;;;;;;31.48;17.90;;;3.30;96.50;;;;;;4973991;28;20041;-75
2021/01/23 01:25:24;;;;;;;33.95;16.77;;;3.20;96.50;;;;;;4974055;28;20066;-75
2021/01/23 01:27:50;;;;;;;31.85;18.88;;;3.30;96.50;;;;;;4974096;28;20031;-74
2021/01/23 01:30:16;;;;;;;33.70;19.08;;;3.30;96.50;;;;;;4974031;28;20034;-76
2021/01/23 01:32:42;;;;;;;35.30;18.88;;;3.30;96.50;;;;;;4973589;28;20061;-75
2021/01/23 01:35:09;;;;;;;34.75;19.45;;;3.40;96.50;;;;;;4973814;28;20078;-75
2021/01/23 01:37:35;;;;;;;36.22;19.70;;;3.30;96.50;;;;;;4972825;28;20069;-76
2021/01/23 01:40:02;;;;;;;32.55;19.27;;;3.40;96.50;;;;;;4973801;28;20366;-76
2021/01/23 01:42:28;;;;;;;31.33;17.92;;;3.40;96.60;;;;;;4973784;28;20027;-78
2021/01/23 01:44:54;;;;;;;33.17;18.60;;;3.40;96.60;;;;;;4972547;28;20027;-76
2021/01/23 01:47:20;;;;;;;36.60;19.63;;;3.40;96.60;;;;;;4956342;28;20037;-76
2021/01/23 01:49:47;;;;;;;33.90;18.48;;;3.40;96.60;;;;;;4973874;28;20082;-76
2021/01/23 01:52:14;;;;;;;31.02;17.77;;;3.40;96.50;;;;;;4973527;28;20027;-76
2021/01/23 01:54:40;;;;;;;36.33;18.58;;;3.40;96.50;;;;;;4973752;28;20034;-76
2021/01/23 01:57:06;;;;;;;32.00;18.77;;;3.40;96.50;;;;;;4973714;28;20113;-76
2021/01/23 01:59:32;;;;;;;33.50;18.27;;;3.50;96.60;;;;;;4973471;28;20030;-76
2021/01/23 02:02:06;;;;;;;36.28;18.08;;;3.40;96.60;;;;;;4973404;28;20382;-75
2021/01/23 02:04:52;;;;;;;31.80;17.67;;;3.50;96.70;;;;;;4973481;28;20126;-75
2021/01/23 02:07:46;;;;;;;37.22;19.38;;;3.50;96.70;;;;;;4962927;28;20413;-75
2021/01/23 02:10:21;;;;;;;34.50;18.45;;;3.50;96.80;;;;;;4946745;28;20035;-76
2021/01/23 02:13:17;;;;;;;36.50;18.95;;;3.50;96.70;;;;;;4955849;28;20031;-76
2021/01/23 02:16:09;;;;;;;35.92;19.13;;;3.50;96.70;;;;;;4973357;28;20532;-76
2021/01/23 02:19:16;;;;;;;40.15;19.58;;;3.60;96.70;;;;;;4973434;28;20035;-75
2021/01/23 02:21:54;;;;;;;40.17;20.67;;;3.60;96.70;;;;;;4944968;28;20035;-75
2021/01/23 02:24:24;;;;;;;45.95;21.08;;;3.60;96.60;;;;;;4973640;28;20095;-74
2021/01/23 02:26:59;;;;;;;40.63;19.95;;;3.60;96.70;;;;;;4955090;28;20034;-75
2021/01/23 02:29:24;;;;;;;41.03;19.05;;;3.60;96.70;;;;;;4973188;28;20030;-77
2021/01/23 02:31:54;;;;;;;45.33;21.45;;;3.60;96.70;;;;;;4973074;28;20026;-76
2021/01/23 02:34:23;;;;;;;42.28;21.30;;;3.60;96.80;;;;;;4972873;28;20046;-74
2021/01/23 02:36:50;;;;;;;43.45;20.67;;;3.60;96.80;;;;;;4973008;28;20397;-76
2021/01/23 02:39:18;;;;;;;39.40;20.73;;;3.60;96.80;;;;;;4972967;28;20023;-74
2021/01/23 02:41:44;;;;;;;41.78;19.98;;;3.60;96.70;;;;;;4973089;28;20393;-75
2021/01/23 02:44:10;;;;;;;42.25;19.85;;;3.60;96.70;;;;;;4973107;28;20022;-75
2021/01/23 02:46:37;;;;;;;41.05;19.85;;;3.60;96.70;;;;;;4955876;28;20023;-75
2021/01/23 02:49:03;;;;;;;40.40;21.08;;;3.60;96.70;;;;;;4972968;28;20019;-75
2021/01/23 02:51:44;;;;;;;43.38;21.20;;;3.60;96.80;;;;;;4972867;28;20030;-75
2021/01/23 02:54:17;;;;;;;41.80;21.70;;;3.60;96.80;;;;;;4972952;28;20109;-75
2021/01/23 02:56:45;;;;;;;46.92;21.70;;;3.60;96.80;;;;;;4972976;28;20158;-75
2021/01/23 02:59:13;;;;;;;47.08;21.77;;;3.60;96.70;;;;;;4972886;28;20031;-75
2021/01/23 03:01:42;;;;;;;48.63;21.45;;;3.60;96.70;;;;;;4972758;28;20026;-75
2021/01/23 03:04:09;;;;;;;41.60;21.17;;;3.70;96.90;;;;;;4972668;28;20427;-75
2021/01/23 03:06:37;;;;;;;49.45;23.35;;;3.60;97.00;;;;;;4971548;28;20029;-75
2021/01/23 03:09:20;;;;;;;42.35;20.98;;;3.70;97.00;;;;;;4972920;28;20030;-75
2021/01/23 03:11:47;;;;;;;44.15;22.67;;;3.70;97.00;;;;;;4972743;28;20030;-76
2021/01/23 03:14:13;;;;;;;46.17;21.38;;;3.70;97.10;;;;;;4972634;28;20026;-74
2021/01/23 03:16:54;;;;;;;39.92;20.90;;;3.70;97.10;;;;;;4972903;28;20034;-76
2021/01/23 03:19:21;;;;;;;38.95;20.30;;;3.80;97.20;;;;;;4972743;28;20042;-74
2021/01/23 03:21:49;;;;;;;43.25;20.77;;;3.70;97.00;;;;;;4972644;28;20114;-76
2021/01/23 03:24:15;;;;;;;55.78;21.55;;;3.70;96.90;;;;;;4955303;28;20027;-76
2021/01/23 03:26:41;;;;;;;44.83;21.27;;;3.80;97.00;;;;;;4972509;28;20466;-76
2021/01/23 03:29:07;;;;;;;49.53;21.58;;;3.70;96.90;;;;;;4972537;28;20083;-75
2021/01/23 03:31:34;;;;;;;46.78;22.33;;;3.70;96.90;;;;;;4972572;28;20023;-75
2021/01/23 03:34:00;;;;;;;48.25;22.27;;;3.80;97.00;;;;;;4964544;28;20110;-75
2021/01/23 03:36:26;;;;;;;45.80;23.10;;;3.70;97.00;;;;;;4953211;29;20470;-75
2021/01/23 03:38:52;;;;;;;50.30;24.33;;;3.70;97.00;;;;;;4954940;28;20102;-75
2021/01/23 03:41:18;;;;;;;44.03;22.23;;;3.80;97.00;;;;;;4956931;29;20605;-75
2021/01/23 03:43:44;;;;;;;47.50;23.35;;;3.70;97.00;;;;;;4955750;29;20372;-75
2021/01/23 03:46:10;;;;;;;50.00;23.48;;;3.80;97.00;;;;;;4957114;29;20026;-75
2021/01/23 03:48:36;;;;;;;64.03;24.45;;;3.80;97.00;;;;;;4956755;29;20023;-76
2021/01/23 03:51:02;;;;;;;55.05;24.52;;;3.80;97.10;;;;;;4956525;29;20030;-76
2021/01/23 03:53:27;;;;;;;55.00;25.17;;;3.80;97.10;;;;;;4956707;29;20462;-75
2021/01/23 03:55:53;;;;;;;60.45;24.17;;;3.80;97.10;;;;;;4956677;29;20118;-76
2021/01/23 03:58:19;;;;;;;61.22;25.88;;;3.80;97.10;;;;;;4956372;29;20058;-75
2021/01/23 04:00:46;;;;;;;66.57;26.45;;;3.80;97.10;;;;;;4956410;29;20078;-75
2021/01/23 04:03:12;;;;;;;73.30;27.10;;;3.80;97.00;;;;;;4956573;29;20031;-76
2021/01/23 04:05:38;;;;;;;64.07;25.65;;;3.80;97.00;;;;;;4955122;29;20374;-76
2021/01/23 04:08:04;;;;;;;59.28;25.15;;;3.80;97.00;;;;;;4956466;29;20027;-75
2021/01/23 04:10:30;;;;;;;64.93;25.17;;;3.80;97.00;;;;;;4956019;29;20038;-77
2021/01/23 04:12:56;;;;;;;65.18;26.13;;;3.80;97.10;;;;;;4956223;29;20470;-76
2021/01/23 04:15:23;;;;;;;57.05;25.20;;;3.80;97.00;;;;;;4956207;29;20039;-76
2021/01/23 04:17:49;;;;;;;69.25;25.17;;;3.70;97.10;;;;;;4956337;29;20027;-77
2021/01/23 04:20:15;;;;;;;63.00;25.15;;;3.80;97.20;;;;;;4956296;29;20034;-75
2021/01/23 04:22:40;;;;;;;67.15;23.23;;;3.80;97.20;;;;;;4955065;29;20114;-75
2021/01/23 04:25:07;;;;;;;81.05;26.20;;;3.80;97.20;;;;;;4956037;29;20031;-76
2021/01/23 04:27:33;;;;;;;67.47;24.50;;;3.80;97.20;;;;;;4954638;29;20027;-75
2021/01/23 04:29:58;;;;;;;63.75;24.00;;;3.80;97.10;;;;;;4955955;29;20087;-75
2021/01/23 04:32:24;;;;;;;67.00;23.98;;;3.70;97.20;;;;;;4955850;29;20459;-75
2021/01/23 04:34:50;;;;;;;91.55;23.98;;;3.80;97.30;;;;;;4970039;28;20054;-75
2021/01/23 04:37:16;;;;;;;63.55;23.13;;;3.80;97.30;;;;;;4957885;28;20688;-75
2021/01/23 04:39:42;;;;;;;73.95;23.15;;;3.80;97.30;;;;;;4974996;28;20023;-75
2021/01/23 04:42:08;;;;;;;55.22;21.60;;;3.80;97.30;;;;;;4975068;28;20528;-76
2021/01/23 04:44:36;;;;;;;72.20;24.98;;;3.80;97.30;;;;;;4957699;28;20027;-77
2021/01/23 04:47:02;;;;;;;59.22;23.10;;;3.80;97.30;;;;;;4975275;28;20026;-76
2021/01/23 04:49:32;;;;;;;61.88;22.45;;;3.80;97.40;;;;;;4974744;28;20023;-76
2021/01/23 04:52:04;;;;;;;71.57;23.27;;;3.80;97.50;;;;;;4974847;28;20027;-76
2021/01/23 04:54:31;;;;;;;66.57;22.83;;;3.80;97.50;;;;;;4974893;28;20488;-76
2021/01/23 04:56:57;;;;;;;73.13;22.90;;;3.80;97.40;;;;;;4973289;28;20031;-75
2021/01/23 04:59:22;;;;;;;63.90;22.08;;;3.80;97.50;;;;;;4957534;28;20342;-76
2021/01/23 05:02:21;;;;;;;70.60;23.17;;;3.80;97.50;;;;;;4974581;28;20039;-76
2021/01/23 05:04:47;;;;;;;54.80;21.23;;;3.90;97.50;;;;;;4941457;28;20043;-77
2021/01/23 05:07:24;;;;;;;50.40;22.48;;;3.90;97.50;;;;;;4957177;28;20034;-77
2021/01/23 05:09:49;;;;;;;48.33;21.70;;;3.90;97.70;;;;;;4974396;28;20026;-76
2021/01/23 05:12:33;;;;;;;46.03;21.17;;;3.90;97.60;;;;;;4974465;28;20141;-76
2021/01/23 05:14:58;;;;;;;45.80;21.40;;;3.90;97.80;;;;;;4974509;28;20026;-75
2021/01/23 05:17:24;;;;;;;52.42;22.63;;;3.90;97.80;;;;;;4974526;28;20019;-76
2021/01/23 05:19:50;;;;;;;50.92;21.25;;;3.90;97.80;;;;;;4956714;28;20034;-76
2021/01/23 05:22:15;;;;;;;51.08;22.50;;;4.00;97.80;;;;;;4974383;28;20058;-75
2021/01/23 05:24:49;;;;;;;51.08;22.05;;;4.00;98.00;;;;;;4974006;28;20023;-76
2021/01/23 05:27:15;;;;;;;42.15;20.83;;;4.00;97.80;;;;;;4974341;28;20054;-76
2021/01/23 05:29:58;;;;;;;56.05;22.40;;;4.00;97.90;;;;;;4974318;28;20074;-76
2021/01/23 05:32:24;;;;;;;46.25;21.70;;;4.10;98.20;;;;;;4974114;28;20142;-77
2021/01/23 05:34:50;;;;;;;44.65;20.08;;;4.00;97.90;;;;;;4959541;28;20470;-77
2021/01/23 05:37:37;;;;;;;41.40;20.27;;;4.10;97.90;;;;;;4954502;29;20493;-76
2021/01/23 05:40:03;;;;;;;49.00;21.05;;;4.10;98.00;;;;;;4954571;29;20479;-76
2021/01/23 05:42:29;;;;;;;44.78;20.60;;;4.10;98.00;;;;;;4954551;29;20370;-76
2021/01/23 05:45:12;;;;;;;49.95;22.00;;;4.20;98.00;;;;;;4954609;29;20032;-76
2021/01/23 05:47:39;;;;;;;44.38;20.58;;;4.20;98.00;;;;;;4937454;29;20046;-75
2021/01/23 05:50:09;;;;;;;51.40;21.13;;;4.20;98.30;;;;;;4954593;29;20032;-77
2021/01/23 05:52:35;;;;;;;47.38;21.98;;;4.20;98.00;;;;;;4953199;29;20050;-76
2021/01/23 05:55:05;;;;;;;48.78;21.70;;;4.20;98.00;;;;;;4954501;29;20031;-76
2021/01/23 05:57:33;;;;;;;46.78;22.25;;;4.20;98.00;;;;;;4954408;29;20027;-77
2021/01/23 06:00:00;;;;;;;47.40;21.48;;;4.30;98.00;;;;;;4954314;29;20050;-76
2021/01/23 06:02:27;;;;;;;48.47;21.55;;;4.30;98.00;;;;;;4954511;28;20450;-77
2021/01/23 06:04:53;;;;;;;43.85;21.67;;;4.30;98.10;;;;;;4954268;29;20382;-76
2021/01/23 06:07:40;;;;;;;49.55;21.88;;;4.30;98.10;;;;;;4954200;29;20030;-75
2021/01/23 06:10:26;;;;;;;51.40;22.20;;;4.30;98.20;;;;;;4953929;29;20035;-76
2021/01/23 06:12:55;;;;;;;46.88;22.40;;;4.40;98.30;;;;;;4943772;29;20470;-78
2021/01/23 06:15:40;;;;;;;43.08;21.02;;;4.40;98.20;;;;;;4953631;29;20027;-76
2021/01/23 06:18:21;;;;;;;51.67;22.38;;;4.40;98.20;;;;;;4936400;29;20035;-76
2021/01/23 06:20:49;;;;;;;51.38;22.27;;;4.40;98.20;;;;;;4952927;29;20046;-76
2021/01/23 06:23:16;;;;;;;48.42;22.88;;;4.40;98.20;;;;;;4954207;29;20086;-76
2021/01/23 06:25:51;;;;;;;48.55;22.40;;;4.50;98.20;;;;;;4953896;29;20038;-76
2021/01/23 06:28:17;;;;;;;53.35;21.40;;;4.50;98.30;;;;;;4953017;29;20019;-77
2021/01/23 06:30:43;;;;;;;56.28;23.02;;;4.50;98.20;;;;;;4952415;29;20110;-76
2021/01/23 06:33:24;;;;;;;57.70;22.92;;;4.50;98.10;;;;;;4954546;28;20067;-75
2021/01/23 06:36:08;;;;;;;49.38;21.95;;;4.50;98.10;;;;;;4956611;28;20061;-76
2021/01/23 06:38:35;;;;;;;44.85;21.65;;;4.50;98.20;;;;;;4972264;28;20065;-77
2021/01/23 06:41:25;;;;;;;50.72;22.95;;;4.60;98.20;;;;;;4973118;28;20122;-76
2021/01/23 06:44:06;;;;;;;45.28;22.20;;;4.60;98.30;;;;;;4991103;28;20035;-76
2021/01/23 06:46:32;;;;;;;58.28;24.95;;;4.60;98.20;;;;;;4992058;28;20023;-76
2021/01/23 06:49:02;;;;;;;49.20;22.63;;;4.60;98.10;;;;;;4991457;28;20030;-76
2021/01/23 06:51:27;;;;;;;53.08;22.95;;;4.60;98.20;;;;;;4975832;28;20042;-75
2021/01/23 06:54:12;;;;;;;52.92;24.38;;;4.60;98.20;;;;;;4975819;28;20449;-76
2021/01/23 06:56:42;;;;;;;64.03;25.45;;;4.60;98.20;;;;;;4974343;28;20038;-76
2021/01/23 06:59:32;;;;;;;60.03;24.15;;;4.60;98.10;;;;;;4974127;28;20031;-75
2021/01/23 07:01:58;;;;;;;61.97;24.75;;;4.70;98.10;;;;;;4974295;28;20035;-77
2021/01/23 07:04:32;;;;;;;55.78;22.73;;;4.60;98.10;;;;;;4957043;28;20117;-76
2021/01/23 07:06:59;;;;;;;54.03;22.92;;;4.60;98.20;;;;;;4972083;28;20022;-77
2021/01/23 07:09:51;;;;;;;53.70;21.30;;;4.60;98.10;;;;;;4971470;28;20023;-76
2021/01/23 07:12:42;;;;;;;52.20;22.95;;;4.60;98.30;;;;;;4971919;28;20026;-77
2021/01/23 07:15:21;;;;;;;52.85;22.98;;;4.70;98.30;;;;;;4975462;28;20026;-77
2021/01/23 07:17:47;;;;;;;51.90;23.30;;;4.70;98.30;;;;;;4975303;28;20094;-76
2021/01/23 07:20:14;;;;;;;63.00;25.20;;;4.70;98.30;;;;;;4975308;28;20478;-77
2021/01/23 07:22:42;;;;;;;49.53;22.55;;;4.70;98.30;;;;;;4975316;28;20466;-77
2021/01/23 10:21:20;;;;;;;29.95;15.48;;;6.80;97.10;;;;;;5169350;23;20471;-80
2021/01/23 10:23:46;;;;;;;25.35;15.50;;;6.90;97.10;;;;;;4995116;28;20034;-82
2021/01/23 10:26:12;;;;;;;24.33;15.82;;;6.90;97.00;;;;;;4995976;28;20022;-81
2021/01/23 10:28:37;;;;;;;24.88;15.88;;;7.00;96.90;;;;;;4996497;28;20027;-81
2021/01/23 10:31:03;;;;;;;24.42;16.20;;;7.00;96.90;;;;;;4978286;28;20030;-82
2021/01/23 10:33:29;;;;;;;27.83;16.92;;;7.00;96.70;;;;;;4995581;28;20030;-82
2021/01/23 10:35:54;;;;;;;27.48;16.15;;;7.10;96.60;;;;;;4995668;28;20423;-80
2021/01/23 10:38:20;;;;;;;25.38;16.90;;;7.10;96.40;;;;;;4995876;28;20037;-82
2021/01/23 10:40:46;;;;;;;26.52;16.67;;;7.10;96.00;;;;;;4978768;28;20380;-80
2021/01/23 10:43:12;;;;;;;25.27;16.55;;;7.10;95.90;;;;;;4996371;28;20524;-81
2021/01/23 10:45:38;;;;;;;25.63;16.35;;;7.10;95.80;;;;;;4996072;28;20105;-81
2021/01/23 10:48:05;;;;;;;45.10;28.23;;;7.10;95.90;;;;;;4996282;28;20053;-81
2021/01/23 10:50:31;;;;;;;46.25;30.38;;;7.10;95.80;;;;;;4999604;28;20022;-82
2021/01/23 10:52:57;;;;;;;39.22;26.08;;;7.20;95.90;;;;;;4999451;28;20080;-81
2021/01/23 10:55:23;;;;;;;33.97;22.83;;;7.20;95.70;;;;;;4981239;28;20034;-82
2021/01/23 10:57:48;;;;;;;30.15;18.70;;;7.20;95.30;;;;;;4998576;28;20472;-82
2021/01/23 11:00:15;;;;;;;25.67;17.48;;;7.10;95.10;;;;;;4998311;28;20029;-83
2021/01/23 11:02:41;;;;;;;27.25;16.80;;;7.10;95.00;;;;;;4982561;28;20134;-82
2021/01/23 11:05:08;;;;;;;22.23;14.23;;;7.10;95.10;;;;;;5002037;28;20231;-82
2021/01/23 11:07:34;;;;;;;22.13;15.57;;;7.20;95.20;;;;;;4983764;28;20029;-82
2021/01/23 11:09:59;;;;;;;22.48;15.57;;;7.20;95.20;;;;;;4983017;28;20023;-82
2021/01/23 11:12:25;;;;;;;25.75;15.13;;;7.20;95.10;;;;;;4999982;28;20030;-83
2021/01/23 11:14:51;;;;;;;23.38;15.35;;;7.20;95.00;;;;;;4999596;28;20026;-83
2021/01/23 11:17:16;;;;;;;24.67;15.73;;;7.30;95.00;;;;;;5000310;28;20022;-83
2021/01/23 11:19:42;;;;;;;26.52;16.73;;;7.20;94.90;;;;;;4999779;28;20027;-83
2021/01/23 11:22:08;;;;;;;23.38;15.57;;;7.30;94.90;;;;;;5000887;28;20057;-83
2021/01/23 11:24:34;;;;;;;27.13;16.70;;;7.30;94.90;;;;;;4997606;28;20034;-83
2021/01/23 11:27:00;;;;;;;28.30;16.48;;;7.40;94.70;;;;;;4995673;28;20031;-84
2021/01/23 11:29:26;;;;;;;29.40;17.60;;;7.40;94.60;;;;;;4995630;28;20037;-84
2021/01/23 11:31:52;;;;;;;28.92;17.45;;;7.40;94.50;;;;;;4996537;28;20022;-83
2021/01/23 11:34:17;;;;;;;27.00;16.80;;;7.40;94.30;;;;;;4996047;28;20037;-83
2021/01/23 11:36:43;;;;;;;23.90;15.95;;;7.40;94.30;;;;;;4996054;28;20057;-83
2021/01/23 11:39:09;;;;;;;25.92;16.80;;;7.40;94.20;;;;;;4996099;28;20034;-82
2021/01/23 11:41:35;;;;;;;25.77;16.42;;;7.50;94.20;;;;;;4996065;28;20496;-82
2021/01/23 11:44:01;;;;;;;27.50;15.95;;;7.50;94.00;;;;;;4996358;28;20030;-83
2021/01/23 11:46:27;;;;;;;21.85;14.70;;;7.50;93.90;;;;;;4995881;28;20037;-83
2021/01/23 11:48:53;;;;;;;23.25;16.02;;;7.50;93.70;;;;;;4995943;28;20019;-82
2021/01/23 11:51:18;;;;;;;23.83;15.60;;;7.40;93.60;;;;;;4996139;28;20064;-82
2021/01/23 11:53:44;;;;;;;22.25;15.20;;;7.40;93.40;;;;;;4995954;28;20376;-83
2021/01/23 11:56:10;;;;;;;24.95;14.95;;;7.30;93.40;;;;;;4978162;28;20129;-82
2021/01/23 11:58:35;;;;;;;24.38;16.17;;;7.30;93.40;;;;;;4995804;28;20034;-83
2021/01/23 12:01:01;;;;;;;24.58;16.10;;;7.30;93.20;;;;;;4978699;28;20026;-83
2021/01/23 12:03:27;;;;;;;29.70;15.65;;;7.30;93.20;;;;;;4996145;28;20178;-83
2021/01/23 12:05:53;;;;;;;24.98;16.52;;;7.20;93.30;;;;;;4996148;28;20109;-83
2021/01/23 12:08:19;;;;;;;24.92;15.60;;;7.30;93.30;;;;;;4978543;28;20476;-83
2021/01/23 12:10:45;;;;;;;27.27;16.15;;;7.20;93.20;;;;;;4995453;28;20019;-84
2021/01/23 12:13:11;;;;;;;24.67;16.13;;;7.20;93.10;;;;;;4995696;28;20026;-83
2021/01/23 12:15:37;;;;;;;29.17;16.50;;;7.20;93.00;;;;;;4995950;28;20029;-82
2021/01/23 12:18:02;;;;;;;27.25;17.20;;;7.20;93.00;;;;;;4995775;28;20360;-83
2021/01/23 12:20:28;;;;;;;28.52;17.30;;;7.20;92.90;;;;;;4995585;28;20046;-83
2021/01/23 12:22:54;;;;;;;28.75;16.88;;;7.10;93.00;;;;;;4994877;28;20034;-83
2021/01/23 12:25:20;;;;;;;25.27;16.38;;;7.10;92.90;;;;;;4995573;28;20054;-84
2021/01/23 12:27:45;;;;;;;26.92;17.50;;;7.10;92.80;;;;;;4995326;28;20028;-83
2021/01/23 12:30:14;;;;;;;28.55;18.33;;;7.10;92.70;;;;;;4995247;28;20069;-83
2021/01/23 12:32:41;;;;;;;26.15;16.55;;;7.00;92.80;;;;;;4995345;28;20046;-83
2021/01/23 12:35:08;;;;;;;28.45;17.08;;;7.00;92.80;;;;;;4994892;28;20034;-83
2021/01/23 12:37:36;;;;;;;28.10;17.02;;;7.00;92.80;;;;;;4995243;28;20363;-83
2021/01/23 12:40:06;;;;;;;29.45;17.52;;;7.00;92.60;;;;;;4995113;28;20030;-83
2021/01/23 12:42:33;;;;;;;29.83;19.02;;;6.90;92.70;;;;;;4995364;28;20027;-85
2021/01/23 12:44:59;;;;;;;27.20;17.67;;;6.90;92.70;;;;;;4995541;28;20077;-84
2021/01/23 12:47:27;;;;;;;27.45;17.65;;;6.80;92.80;;;;;;4995058;28;20464;-81
2021/01/23 12:49:53;;;;;;;28.17;17.85;;;6.90;92.90;;;;;;4977414;28;20358;-84
2021/01/23 12:52:18;;;;;;;29.75;16.90;;;6.90;92.90;;;;;;4995133;28;20106;-83
2021/01/23 12:54:44;;;;;;;30.77;18.48;;;6.90;93.00;;;;;;4995335;28;20503;-82
2021/01/23 12:57:10;;;;;;;31.48;18.88;;;6.80;92.80;;;;;;4995081;28;20539;-82
2021/01/23 12:59:36;;;;;;;31.27;18.38;;;6.80;92.80;;;;;;4994997;28;20034;-82
2021/01/23 13:02:02;;;;;;;27.10;17.08;;;6.80;92.80;;;;;;4977462;28;20034;-82
2021/01/23 13:04:28;;;;;;;31.55;18.48;;;6.80;92.70;;;;;;4994544;28;20384;-82
2021/01/23 13:06:53;;;;;;;26.58;17.77;;;6.80;92.70;;;;;;4994848;28;20023;-81
2021/01/23 13:09:19;;;;;;;28.70;18.15;;;6.80;93.00;;;;;;4977199;28;20022;-82
2021/01/23 13:11:45;;;;;;;32.15;19.42;;;6.80;92.90;;;;;;4993768;28;20127;-81
2021/01/23 13:14:10;;;;;;;30.15;18.50;;;6.80;92.80;;;;;;4994916;28;20030;-83
2021/01/23 13:16:36;;;;;;;34.97;19.48;;;6.80;92.90;;;;;;4994359;28;20077;-82
2021/01/23 13:19:03;;;;;;;32.15;19.75;;;6.80;92.90;;;;;;4994094;28;20097;-83
2021/01/23 13:21:30;;;;;;;32.33;19.23;;;6.80;92.90;;;;;;4995475;28;20579;-83
2021/01/23 13:23:55;;;;;;;30.83;19.27;;;6.80;92.80;;;;;;4976705;28;20060;-83
2021/01/23 13:26:22;;;;;;;36.13;19.13;;;6.70;92.80;;;;;;4994065;28;20097;-83
2021/01/23 13:28:48;;;;;;;33.67;19.45;;;6.70;92.80;;;;;;4976811;28;20030;-82
2021/01/23 13:31:14;;;;;;;33.33;19.52;;;6.70;92.70;;;;;;4994518;28;20022;-82
2021/01/23 13:33:39;;;;;;;30.73;19.35;;;6.70;92.80;;;;;;4994010;28;20035;-82
2021/01/23 13:36:05;;;;;;;32.10;19.15;;;6.70;92.90;;;;;;4994229;28;20034;-82
2021/01/23 13:38:31;;;;;;;29.98;18.88;;;6.70;92.90;;;;;;4976548;28;20071;-81
2021/01/23 13:40:57;;;;;;;33.90;20.15;;;6.70;93.00;;;;;;4994066;28;20029;-81
2021/01/23 13:43:23;;;;;;;34.88;21.42;;;6.80;92.90;;;;;;4994165;28;20030;-82
2021/01/23 13:45:48;;;;;;;35.55;21.05;;;6.70;92.90;;;;;;4994377;28;20105;-82
2021/01/23 13:48:14;;;;;;;39.85;22.15;;;6.80;93.00;;;;;;4994034;28;20026;-82
2021/01/23 13:50:40;;;;;;;36.63;21.30;;;6.70;93.00;;;;;;4993468;28;20333;-81
2021/01/23 13:53:06;;;;;;;38.25;22.25;;;6.80;93.00;;;;;;4993276;28;20085;-83
2021/01/23 13:55:32;;;;;;;39.08;21.77;;;6.80;93.00;;;;;;4992776;28;20420;-83
2021/01/23 13:57:58;;;;;;;33.17;20.80;;;6.70;92.90;;;;;;4993404;28;20026;-82
2021/01/23 14:00:24;;;;;;;36.38;21.75;;;6.70;92.90;;;;;;4993398;28;20041;-82
2021/01/23 14:02:50;;;;;;;35.00;21.67;;;6.70;92.90;;;;;;4993131;28;20022;-81
2021/01/23 14:05:16;;;;;;;41.15;23.52;;;6.70;93.00;;;;;;4993383;28;20031;-82
2021/01/23 14:07:42;;;;;;;35.72;21.92;;;6.70;93.10;;;;;;4993442;28;20026;-82
2021/01/23 14:10:08;;;;;;;37.75;23.67;;;6.70;93.00;;;;;;4976093;28;20018;-82
2021/01/23 14:12:34;;;;;;;40.47;23.73;;;6.70;93.00;;;;;;4993422;28;20040;-83
2021/01/23 14:15:00;;;;;;;41.00;24.20;;;6.70;93.00;;;;;;4992909;28;20443;-83
2021/01/23 14:17:27;;;;;;;42.67;22.65;;;6.70;93.00;;;;;;4976113;28;20325;-82
2021/01/23 14:19:53;;;;;;;41.30;24.67;;;6.70;93.00;;;;;;4993578;28;20653;-84
2021/01/23 14:22:19;;;;;;;38.83;23.85;;;6.60;93.00;;;;;;4993004;28;20444;-83
2021/01/23 14:24:45;;;;;;;39.65;24.05;;;6.60;92.90;;;;;;4992811;28;20125;-83
2021/01/23 14:27:10;;;;;;;42.50;24.10;;;6.60;93.00;;;;;;4976073;28;20026;-81
2021/01/23 14:29:37;;;;;;;44.13;25.42;;;6.60;93.00;;;;;;4993415;28;20026;-83
2021/01/23 14:32:03;;;;;;;44.90;25.13;;;6.60;93.10;;;;;;4993319;28;20025;-82
2021/01/23 14:34:29;;;;;;;46.17;27.52;;;6.60;93.10;;;;;;4993337;28;20033;-82
2021/01/23 14:36:55;;;;;;;46.13;27.08;;;6.50;93.10;;;;;;4993120;28;20027;-82
2021/01/23 14:39:20;;;;;;;49.58;28.10;;;6.60;93.30;;;;;;4993094;28;20030;-82
2021/01/23 14:41:46;;;;;;;53.22;30.30;;;6.60;93.30;;;;;;4993301;28;20441;-83
2021/01/23 14:44:12;;;;;;;49.15;28.10;;;6.60;93.20;;;;;;4993243;28;20473;-83
2021/01/23 14:46:37;;;;;;;47.85;27.42;;;6.50;93.10;;;;;;4993421;28;20069;-83
2021/01/23 14:49:06;;;;;;;53.38;30.60;;;6.50;93.20;;;;;;4993482;28;20045;-83
2021/01/23 14:51:32;;;;;;;50.35;30.20;;;6.50;93.40;;;;;;4993296;28;20388;-84
2021/01/23 14:54:00;;;;;;;54.03;30.38;;;6.50;93.40;;;;;;4975783;28;20039;-83
2021/01/23 14:56:26;;;;;;;58.53;30.73;;;6.50;93.40;;;;;;4993760;28;20058;-83
2021/01/23 14:58:52;;;;;;;52.08;31.00;;;6.60;93.50;;;;;;4993376;28;20105;-83
2021/01/23 15:01:18;;;;;;;52.70;30.42;;;6.50;93.40;;;;;;5002361;28;20420;-82
2021/01/23 15:03:43;;;;;;;51.08;29.58;;;6.60;93.40;;;;;;4997784;28;20053;-84
2021/01/23 15:06:09;;;;;;;47.95;28.05;;;6.50;93.30;;;;;;4997392;28;20058;-84
2021/01/23 15:08:35;;;;;;;52.83;29.90;;;6.50;93.20;;;;;;4975781;28;20084;-82
2021/01/23 15:11:01;;;;;;;49.70;28.52;;;6.50;93.30;;;;;;4995394;28;20046;-84
2021/01/23 15:13:29;;;;;;;50.75;28.65;;;6.40;93.40;;;;;;4976182;28;20465;-82
2021/01/23 15:15:55;;;;;;;49.72;28.63;;;6.40;93.50;;;;;;4992587;28;20052;-82
2021/01/23 15:18:21;;;;;;;54.92;29.23;;;6.40;93.60;;;;;;4992398;28;20476;-84
2021/01/23 15:20:48;;;;;;;51.53;28.60;;;6.50;93.70;;;;;;4992353;28;20046;-81
2021/01/23 15:23:14;;;;;;;50.80;29.95;;;6.50;93.70;;;;;;4993000;28;20465;-81
2021/01/23 15:25:40;;;;;;;51.72;28.45;;;6.50;93.70;;;;;;4992875;28;20089;-81
2021/01/23 15:28:05;;;;;;;50.95;28.63;;;6.50;93.80;;;;;;4991979;28;20026;-82
2021/01/23 15:30:31;;;;;;;53.40;30.80;;;6.50;93.90;;;;;;4993405;28;20034;-80
2021/01/23 15:32:57;;;;;;;53.55;30.77;;;6.50;93.80;;;;;;4992782;28;20423;-80
2021/01/23 15:35:23;;;;;;;56.83;31.73;;;6.50;93.70;;;;;;4994709;28;20093;-81